Time;durP1;ratioP1;P1;durP2;ratioP2;P2;SDS_P1;SDS_P2;PMS_P1;PMS_P2;Temp;Humidity;BMP_temperature;BMP_pressure;BME280_temperature;BME280_humidity;BME280_pressure;Samples;Min_cycle;Max_cycle;Signal;HPM_P1;HPM_P2
2021/11/05 00:01:19;;;;;;;3.80;3.50;;;;;;;10.36;50.83;95239.75;4989760;28;20494;-67
2021/11/05 00:03:44;;;;;;;4.30;3.88;;;;;;;10.43;50.77;95247.31;5004986;28;20037;-66
2021/11/05 00:06:09;;;;;;;3.20;3.00;;;;;;;10.26;50.28;95237.31;4985659;28;20424;-66
2021/11/05 00:08:35;;;;;;;5.05;3.78;;;;;;;10.41;50.02;95257.47;4985761;28;20392;-67
2021/11/05 00:11:00;;;;;;;4.32;3.70;;;;;;;10.23;50.52;95234.44;4970233;28;20027;-66
2021/11/05 00:13:26;;;;;;;3.80;3.40;;;;;;;10.30;50.99;95256.13;4969683;28;20596;-68
2021/11/05 00:15:51;;;;;;;3.60;3.30;;;;;;;10.07;50.33;95233.97;4974876;28;20157;-66
2021/11/05 00:18:17;;;;;;;3.97;3.67;;;;;;;10.20;51.10;95251.00;4986848;28;20480;-66
2021/11/05 00:20:42;;;;;;;3.88;3.58;;;;;;;9.98;51.04;95228.59;4989609;28;20042;-66
2021/11/05 00:23:08;;;;;;;4.13;3.72;;;;;;;9.96;51.23;95236.06;5004776;28;20018;-66
2021/11/05 00:25:34;;;;;;;4.35;3.95;;;;;;;9.93;51.34;95255.28;4990069;28;20596;-66
2021/11/05 00:27:59;;;;;;;3.92;3.63;;;;;;;9.72;51.51;95244.22;4988922;28;20602;-66
2021/11/05 00:30:25;;;;;;;5.82;4.22;;;;;;;9.60;51.48;95244.72;4989508;28;20077;-66
2021/11/05 00:32:50;;;;;;;4.57;4.25;;;;;;;9.62;51.51;95258.50;5008877;28;20026;-66
2021/11/05 00:35:15;;;;;;;5.13;4.70;;;;;;;9.50;52.09;95252.09;4993994;28;20022;-66
2021/11/05 00:37:42;;;;;;;4.13;3.75;;;;;;;9.33;52.06;95232.22;4993792;28;20399;-66
2021/11/05 00:40:09;;;;;;;5.03;4.57;;;;;;;9.43;52.37;95262.31;4993585;28;20038;-66
2021/11/05 00:42:34;;;;;;;5.05;4.65;;;;;;;9.29;52.22;95257.78;4992730;28;20027;-66
2021/11/05 00:45:00;;;;;;;6.75;5.65;;;;;;;9.17;52.14;95246.84;4994193;28;20030;-66
2021/11/05 00:47:25;;;;;;;6.28;5.75;;;;;;;9.23;52.49;95263.47;4997998;28;20030;-66
2021/11/05 00:49:51;;;;;;;5.00;4.60;;;;;;;9.04;52.55;95244.94;4993846;28;20365;-66
2021/11/05 00:52:16;;;;;;;5.45;4.95;;;;;;;9.11;52.83;95269.25;5008972;28;20463;-66
2021/11/05 00:54:42;;;;;;;5.40;5.00;;;;;;;9.06;53.11;95261.38;4993429;28;20506;-66
2021/11/05 00:57:07;;;;;;;5.45;5.03;;;;;;;8.99;53.56;95261.72;4993673;28;20038;-67
2021/11/05 00:59:33;;;;;;;5.18;4.68;;;;;;;8.88;53.18;95256.88;4993631;28;20571;-65
2021/11/05 01:01:58;;;;;;;5.28;4.88;;;;;;;8.69;54.11;95267.50;4993315;28;20542;-66
2021/11/05 01:04:24;;;;;;;4.22;3.92;;;;;;;8.22;55.36;95266.53;4991809;28;20045;-66
2021/11/05 01:06:49;;;;;;;5.13;4.72;;;;;;;8.27;55.17;95246.06;4993677;28;20023;-66
2021/11/05 01:09:14;;;;;;;4.72;4.32;;;;;;;8.26;55.29;95272.84;4993003;28;20109;-65
2021/11/05 01:11:40;;;;;;;5.20;4.70;;;;;;;7.63;57.03;95258.00;4992341;28;20022;-66
2021/11/05 01:14:06;;;;;;;4.53;4.20;;;;;;;8.44;55.22;95276.59;4993222;28;20030;-66
2021/11/05 01:16:31;;;;;;;5.57;5.07;;;;;;;8.61;54.67;95282.22;4993102;28;20022;-66
2021/11/05 01:18:57;;;;;;;4.78;4.40;;;;;;;8.51;54.22;95275.19;5007718;28;20023;-66
2021/11/05 01:21:22;;;;;;;5.72;5.20;;;;;;;8.75;53.58;95288.38;4991809;28;20061;-66
2021/11/05 01:23:48;;;;;;;5.60;5.20;;;;;;;8.62;53.57;95281.13;4992996;28;20050;-66
2021/11/05 01:26:14;;;;;;;6.57;5.63;;;;;;;8.73;53.88;95284.41;5008204;28;20057;-65
2021/11/05 01:28:39;;;;;;;5.80;5.30;;;;;;;8.71;53.72;95281.28;4991859;28;20633;-66
2021/11/05 01:31:05;;;;;;;6.50;6.00;;;;;;;8.76;53.81;95294.47;4992496;28;20492;-66
2021/11/05 01:33:30;;;;;;;5.55;5.15;;;;;;;8.66;53.77;95276.84;4988029;28;20400;-66
2021/11/05 01:35:56;;;;;;;5.82;5.43;;;;;;;8.61;53.88;95273.47;4992973;28;20102;-67
2021/11/05 01:38:21;;;;;;;6.20;5.70;;;;;;;8.63;53.77;95272.09;4992828;28;20026;-66
2021/11/05 01:40:47;;;;;;;5.95;5.45;;;;;;;8.53;54.15;95286.28;4992632;28;20030;-66
2021/11/05 01:43:14;;;;;;;6.25;5.60;;;;;;;8.44;53.94;95273.97;4991847;28;20464;-66
2021/11/05 01:45:40;;;;;;;5.95;5.35;;;;;;;8.53;54.32;95278.34;4993078;28;20026;-67
2021/11/05 01:48:07;;;;;;;6.38;5.85;;;;;;;8.48;54.14;95270.44;5007441;28;20026;-66
2021/11/05 01:50:32;;;;;;;5.90;5.40;;;;;;;8.31;54.63;95273.56;4992351;28;20022;-66
2021/11/05 01:52:58;;;;;;;4.78;4.38;;;;;;;8.14;55.46;95277.78;4992315;28;20023;-67
2021/11/05 01:55:24;;;;;;;5.55;5.05;;;;;;;8.33;55.18;95279.38;5007794;28;20599;-67
2021/11/05 01:57:50;;;;;;;5.25;4.85;;;;;;;8.14;55.66;95294.47;4992670;28;20105;-66
2021/11/05 02:00:19;;;;;;;5.00;4.60;;;;;;;8.00;55.71;95297.03;4992140;28;20080;-65
2021/11/05 02:02:45;;;;;;;5.15;4.75;;;;;;;7.96;55.64;95263.44;4991867;28;20038;-66
2021/11/05 02:05:11;;;;;;;5.82;4.80;;;;;;;8.04;55.29;95294.59;4992390;28;20061;-66
2021/11/05 02:07:38;;;;;;;7.80;5.47;;;;;;;8.34;54.86;95291.56;4990963;28;20096;-65
2021/11/05 02:10:08;;;;;;;5.70;5.13;;;;;;;8.48;54.18;95288.22;4992023;28;20037;-66
2021/11/05 02:12:34;;;;;;;5.97;5.55;;;;;;;8.41;54.07;95285.16;4992454;28;20057;-66
2021/11/05 02:15:01;;;;;;;6.55;5.68;;;;;;;8.26;54.66;95294.06;4992084;28;20133;-66
2021/11/05 02:17:27;;;;;;;6.68;5.95;;;;;;;8.20;55.37;95295.19;5007126;28;20014;-66
2021/11/05 02:19:52;;;;;;;6.65;6.15;;;;;;;8.25;54.80;95280.03;4991711;28;20096;-66
2021/11/05 02:22:18;;;;;;;7.30;6.60;;;;;;;8.39;54.39;95308.50;4992189;28;20030;-66
2021/11/05 02:24:44;;;;;;;7.00;6.35;;;;;;;8.33;54.41;95300.56;4992260;28;20019;-66
2021/11/05 02:27:09;;;;;;;6.75;6.15;;;;;;;8.11;55.37;95308.28;4992315;28;20057;-66
2021/11/05 02:29:35;;;;;;;6.25;5.75;;;;;;;8.31;54.60;95304.59;4991884;28;20026;-66
2021/11/05 02:32:04;;;;;;;8.27;6.00;;;;;;;8.03;55.27;95272.59;4991705;28;20424;-66
2021/11/05 02:34:30;;;;;;;6.95;6.35;;;;;;;8.26;55.04;95294.84;4991531;28;20027;-66
2021/11/05 02:36:56;;;;;;;7.15;6.45;;;;;;;8.40;54.55;95308.22;4991737;28;20054;-66
2021/11/05 02:39:22;;;;;;;7.18;6.47;;;;;;;8.22;54.52;95293.03;4991852;28;20088;-66
2021/11/05 02:41:49;;;;;;;6.97;6.18;;;;;;;8.26;54.68;95302.00;5007036;28;20088;-66
2021/11/05 02:44:16;;;;;;;6.38;5.78;;;;;;;8.06;55.21;95309.13;4991880;28;20026;-66
2021/11/05 02:46:42;;;;;;;7.63;7.03;;;;;;;8.24;54.58;95301.50;4991659;28;20046;-66
2021/11/05 02:49:09;;;;;;;7.68;6.97;;;;;;;8.21;54.70;95300.22;5006270;28;20031;-66
2021/11/05 02:51:37;;;;;;;6.20;5.60;;;;;;;8.39;54.88;95314.56;5006639;28;20025;-66
2021/11/05 02:54:04;;;;;;;7.25;6.65;;;;;;;8.48;54.50;95317.38;4991374;28;20280;-66
2021/11/05 02:56:29;;;;;;;6.45;5.95;;;;;;;8.37;54.83;95310.66;4990405;28;20149;-66
2021/11/05 02:58:55;;;;;;;6.72;6.13;;;;;;;8.40;54.73;95310.09;4991374;28;20022;-66
2021/11/05 03:01:21;;;;;;;6.35;5.80;;;;;;;8.44;54.38;95314.50;4991028;28;20026;-66
2021/11/05 03:03:47;;;;;;;6.70;6.20;;;;;;;8.54;54.21;95311.72;4990323;28;20026;-66
2021/11/05 03:06:12;;;;;;;5.90;5.40;;;;;;;8.51;53.93;95303.56;4990083;28;20149;-66
2021/11/05 03:08:38;;;;;;;6.63;5.72;;;;;;;8.67;53.81;95320.06;5006091;28;20117;-67
2021/11/05 03:11:04;;;;;;;6.93;6.22;;;;;;;8.50;53.56;95296.69;4991080;28;20022;-65
2021/11/05 03:13:30;;;;;;;6.30;5.68;;;;;;;8.53;53.65;95304.06;4991018;28;20038;-66
2021/11/05 03:15:55;;;;;;;6.85;6.20;;;;;;;8.64;53.43;95329.34;5006351;28;20022;-66
2021/11/05 03:18:21;;;;;;;6.43;5.93;;;;;;;8.62;53.51;95328.88;4990730;28;20034;-66
2021/11/05 03:20:47;;;;;;;6.82;6.22;;;;;;;8.53;53.71;95310.16;5005646;28;20026;-67
2021/11/05 03:23:15;;;;;;;7.68;6.88;;;;;;;8.69;53.44;95345.19;5005670;28;20022;-66
2021/11/05 03:25:40;;;;;;;7.45;6.85;;;;;;;8.62;53.90;95320.13;5006069;28;20026;-65
2021/11/05 03:28:08;;;;;;;7.82;6.45;;;;;;;8.76;53.71;95329.72;4990883;28;20546;-66
2021/11/05 03:30:34;;;;;;;10.70;5.95;;;;;;;8.90;53.66;95335.06;4990762;28;20030;-66
2021/11/05 03:32:59;;;;;;;7.35;6.75;;;;;;;9.02;53.21;95337.31;5005228;28;20380;-66
2021/11/05 03:35:25;;;;;;;7.00;6.38;;;;;;;9.02;52.61;95329.34;4990448;28;20041;-66
2021/11/05 03:37:51;;;;;;;6.32;5.75;;;;;;;9.16;52.64;95338.13;4990661;28;20526;-66
2021/11/05 03:40:17;;;;;;;6.40;5.80;;;;;;;9.01;52.35;95319.81;4990286;28;20125;-67
2021/11/05 03:42:43;;;;;;;7.25;6.55;;;;;;;9.21;52.05;95338.06;4990464;28;20476;-66
2021/11/05 03:45:10;;;;;;;6.18;5.50;;;;;;;9.20;52.60;95344.44;4989391;28;20085;-66
2021/11/05 03:47:35;;;;;;;5.97;5.47;;;;;;;9.01;52.66;95327.78;4988830;28;20026;-66
2021/11/05 03:50:02;;;;;;;6.00;5.50;;;;;;;9.22;52.18;95352.13;4988609;28;20053;-67
2021/11/05 03:52:28;;;;;;;6.03;5.53;;;;;;;9.10;52.59;95332.13;5005562;28;20085;-66
2021/11/05 03:54:53;;;;;;;5.50;5.10;;;;;;;9.21;52.77;95350.53;5005289;28;20030;-66
2021/11/05 03:57:19;;;;;;;6.32;5.72;;;;;;;9.19;52.42;95353.50;4990549;28;20325;-66
2021/11/05 03:59:44;;;;;;;5.82;5.32;;;;;;;9.18;51.97;95343.97;4989903;28;20502;-66
2021/11/05 04:02:10;;;;;;;5.80;5.15;;;;;;;9.38;52.38;95370.19;4990159;28;20026;-66
2021/11/05 04:04:36;;;;;;;6.28;5.68;;;;;;;9.27;52.49;95354.72;4989659;28;20041;-66
2021/11/05 04:07:01;;;;;;;5.75;5.25;;;;;;;9.46;52.08;95375.91;4989866;28;20413;-66
2021/11/05 04:09:27;;;;;;;6.10;5.60;;;;;;;9.48;52.37;95385.16;4988492;28;20038;-66
2021/11/05 04:11:52;;;;;;;5.70;5.20;;;;;;;9.50;52.45;95369.72;4990271;28;20027;-66
2021/11/05 04:14:17;;;;;;;7.40;5.38;;;;;;;9.64;52.67;95380.38;4990021;28;20041;-66
2021/11/05 04:16:43;;;;;;;5.72;5.22;;;;;;;9.78;51.76;95381.22;4988520;28;20030;-66
2021/11/05 04:19:09;;;;;;;5.70;4.80;;;;;;;9.79;51.64;95372.16;4989384;28;20589;-66
2021/11/05 04:21:34;;;;;;;5.05;4.65;;;;;;;9.94;51.18;95395.00;4990021;28;20121;-66
2021/11/05 04:24:01;;;;;;;5.97;5.32;;;;;;;9.86;51.17;95366.44;4989857;28;20027;-66
2021/11/05 04:26:28;;;;;;;5.07;4.55;;;;;;;9.94;51.09;95395.00;5005050;28;20023;-66
2021/11/05 04:28:53;;;;;;;5.50;5.00;;;;;;;9.19;52.47;95382.69;4989870;28;20030;-66
2021/11/05 04:31:19;;;;;;;4.95;4.55;;;;;;;9.24;52.47;95384.47;4989771;28;20026;-66
2021/11/05 04:33:44;;;;;;;6.57;5.85;;;;;;;9.67;52.29;95392.28;4993540;28;20462;-66
2021/11/05 04:36:11;;;;;;;6.35;5.90;;;;;;;9.87;51.90;95408.66;4989925;28;20034;-66
2021/11/05 04:38:37;;;;;;;7.18;5.45;;;;;;;9.88;51.56;95393.53;5007807;23;20046;-82
2021/11/05 04:41:02;;;;;;;6.00;5.50;;;;;;;9.93;51.27;95400.59;5000919;28;20033;-82
2021/11/05 04:43:28;;;;;;;6.30;5.80;;;;;;;9.90;51.19;95396.66;4993232;28;20085;-81
2021/11/05 04:45:54;;;;;;;6.70;6.10;;;;;;;9.92;50.95;95401.69;4993291;28;20027;-82
2021/11/05 04:48:19;;;;;;;6.00;5.50;;;;;;;9.82;51.04;95403.44;5001626;28;20041;-82
2021/11/05 04:50:45;;;;;;;7.13;6.53;;;;;;;9.68;51.43;95407.16;5002725;28;20028;-82
2021/11/05 04:53:11;;;;;;;6.53;6.03;;;;;;;9.44;52.00;95423.19;4995371;28;20510;-83
2021/11/05 04:55:37;;;;;;;9.45;6.97;;;;;;;9.33;51.84;95412.72;4993237;28;20117;-82
2021/11/05 04:58:03;;;;;;;7.55;6.85;;;;;;;9.27;52.44;95419.19;4993275;28;20436;-82
2021/11/05 05:00:29;;;;;;;6.72;6.22;;;;;;;9.14;52.77;95419.13;4992654;28;20550;-82
2021/11/05 05:02:56;;;;;;;7.47;6.78;;;;;;;9.10;52.82;95424.22;4995916;28;20057;-81
2021/11/05 05:05:24;;;;;;;7.50;6.53;;;;;;;9.02;52.73;95419.56;5007924;28;20049;-81
2021/11/05 05:07:50;;;;;;;8.73;7.80;;;;;;;8.99;52.71;95422.78;5011706;28;20026;-81
2021/11/05 05:10:16;;;;;;;8.40;7.60;;;;;;;8.87;53.06;95436.47;5012467;28;20280;-82
2021/11/05 05:12:41;;;;;;;8.20;7.50;;;;;;;8.85;53.04;95428.00;5011250;28;20061;-82
2021/11/05 05:15:09;;;;;;;8.25;7.55;;;;;;;8.74;53.16;95424.69;5027799;28;20034;-82
2021/11/05 05:17:35;;;;;;;8.68;7.88;;;;;;;8.79;53.56;95437.88;5014084;28;20017;-83
2021/11/05 05:20:03;;;;;;;8.63;7.82;;;;;;;8.78;53.29;95438.97;5011321;28;20033;-82
2021/11/05 05:22:28;;;;;;;9.27;8.38;;;;;;;8.77;53.39;95437.38;4996754;28;20129;-82
2021/11/05 05:24:54;;;;;;;9.50;8.60;;;;;;;8.83;53.45;95441.56;4996263;28;20057;-82
2021/11/05 05:27:19;;;;;;;9.55;8.60;;;;;;;8.97;53.31;95452.25;4995157;28;20034;-81
2021/11/05 05:29:45;;;;;;;8.60;7.72;;;;;;;9.10;53.00;95446.22;4996008;28;20123;-82
2021/11/05 05:32:10;;;;;;;8.27;7.50;;;;;;;9.28;53.02;95444.66;4996679;28;20030;-82
2021/11/05 05:34:35;;;;;;;7.70;7.00;;;;;;;9.46;52.74;95451.03;5006856;28;20022;-82
2021/11/05 05:37:01;;;;;;;8.20;6.70;;;;;;;9.66;52.26;95465.06;5002961;28;20038;-82
2021/11/05 05:39:27;;;;;;;7.68;6.95;;;;;;;9.70;52.81;95456.25;4995113;28;20077;-82
2021/11/05 05:41:52;;;;;;;7.28;6.65;;;;;;;9.89;51.93;95469.50;4996113;28;20023;-81
2021/11/05 05:44:18;;;;;;;6.45;5.93;;;;;;;10.04;51.60;95476.44;4995673;28;20026;-83
2021/11/05 05:46:44;;;;;;;5.85;5.28;;;;;;;10.08;51.89;95464.09;4996042;28;20172;-82
2021/11/05 05:49:10;;;;;;;5.15;4.72;;;;;;;10.11;51.67;95474.16;5011157;28;20030;-83
2021/11/05 05:51:35;;;;;;;6.97;5.82;;;;;;;10.12;51.49;95481.84;5030598;28;20101;-83
2021/11/05 05:54:01;;;;;;;6.53;4.68;;;;;;;10.11;51.15;95476.81;5015131;28;20026;-84
2021/11/05 05:56:26;;;;;;;5.38;3.72;;;;;;;10.13;50.23;95485.28;5015300;28;20514;-83
2021/11/05 05:58:53;;;;;;;5.35;4.93;;;;;;;10.11;51.03;95504.19;5030701;28;20368;-83
2021/11/05 06:01:19;;;;;;;6.35;5.20;;;;;;;9.94;50.34;95509.28;5014763;28;20079;-82
2021/11/05 06:03:44;;;;;;;5.55;5.05;;;;;;;9.73;50.77;95505.34;5004974;28;20093;-82
2021/11/05 06:06:12;;;;;;;5.65;5.15;;;;;;;9.50;50.69;95507.00;4995487;28;20484;-83
2021/11/05 06:08:40;;;;;;;5.43;4.93;;;;;;;9.31;51.34;95502.47;4995427;28;20034;-83
2021/11/05 06:11:06;;;;;;;6.32;5.82;;;;;;;9.22;51.17;95512.19;4995147;28;20104;-84
2021/11/05 06:13:32;;;;;;;6.05;5.35;;;;;;;9.05;51.62;95507.31;4993989;28;20034;-83
2021/11/05 06:15:58;;;;;;;7.20;6.50;;;;;;;8.99;51.99;95508.47;4995014;28;20113;-83
2021/11/05 06:18:24;;;;;;;6.35;5.55;;;;;;;8.98;51.62;95516.72;5002736;28;20057;-83
2021/11/05 06:20:49;;;;;;;8.63;6.78;;;;;;;9.00;52.32;95519.88;5005915;28;20076;-83
2021/11/05 06:23:15;;;;;;;8.25;7.18;;;;;;;9.13;52.69;95527.16;5014460;28;20022;-83
2021/11/05 06:25:40;;;;;;;7.15;6.45;;;;;;;9.28;52.45;95532.25;5014414;28;20649;-78
2021/11/05 06:28:12;;;;;;;8.55;6.18;;;;;;;9.41;52.21;95527.31;5013180;28;20401;-78
2021/11/05 06:30:37;;;;;;;6.95;6.35;;;;;;;9.46;51.77;95532.56;5013017;28;20037;-82
2021/11/05 06:33:03;;;;;;;7.20;6.45;;;;;;;9.43;51.45;95549.06;5016917;28;20030;-75
2021/11/05 06:35:28;;;;;;;9.02;5.85;;;;;;;9.38;51.88;95537.44;5004948;28;20100;-80
2021/11/05 06:37:55;;;;;;;7.15;6.45;;;;;;;9.52;52.10;95542.03;4993749;28;20026;-79
2021/11/05 06:40:21;;;;;;;6.72;6.13;;;;;;;9.48;51.75;95556.97;4994692;28;20026;-75
2021/11/05 06:42:46;;;;;;;7.35;6.65;;;;;;;9.45;51.77;95558.31;4994484;28;20033;-71
2021/11/05 06:45:12;;;;;;;6.47;5.90;;;;;;;9.40;51.83;95557.59;4995214;28;20034;-74
2021/11/05 06:47:38;;;;;;;9.10;7.97;;;;;;;9.40;51.75;95565.56;4995172;28;20034;-75
2021/11/05 06:50:08;;;;;;;11.77;6.80;;;;;;;9.34;52.14;95562.97;5001610;28;20064;-72
2021/11/05 06:52:34;;;;;;;7.80;7.00;;;;;;;9.30;52.07;95572.56;5001062;28;20018;-72
2021/11/05 06:55:00;;;;;;;8.02;7.32;;;;;;;9.31;52.36;95576.81;5008284;28;20110;-75
2021/11/05 06:57:26;;;;;;;8.27;7.32;;;;;;;9.22;52.71;95575.88;4993085;28;20109;-76
2021/11/05 06:59:51;;;;;;;7.72;6.90;;;;;;;9.33;53.05;95592.47;4991515;28;20116;-78
2021/11/05 07:02:19;;;;;;;7.80;7.18;;;;;;;9.37;53.11;95593.47;5006160;28;20026;-78
2021/11/05 07:04:44;;;;;;;8.43;7.10;;;;;;;9.44;53.00;95601.09;5029291;28;20026;-79
2021/11/05 07:07:09;;;;;;;7.45;6.75;;;;;;;9.43;52.83;95597.66;5012934;28;20032;-77
2021/11/05 07:09:35;;;;;;;6.63;6.05;;;;;;;9.52;52.66;95601.25;5012618;28;20105;-78
2021/11/05 07:12:00;;;;;;;6.60;6.00;;;;;;;9.49;52.70;95607.13;5012994;28;20721;-83
2021/11/05 07:14:26;;;;;;;6.70;6.00;;;;;;;9.61;52.97;95618.13;5011988;28;20022;-74
2021/11/05 07:16:52;;;;;;;7.50;6.90;;;;;;;9.29;53.96;95625.97;5026912;28;20033;-75
2021/11/05 07:19:18;;;;;;;7.07;6.38;;;;;;;9.57;53.60;95608.34;5006975;28;20018;-76
2021/11/05 07:21:44;;;;;;;8.85;6.35;;;;;;;9.80;52.60;95618.13;4997808;28;20105;-82
2021/11/05 07:24:10;;;;;;;6.60;6.05;;;;;;;9.75;53.43;95622.72;5003372;28;20026;-72
2021/11/05 07:26:48;;;;;;;6.68;6.13;;;;;;;9.87;53.17;95626.53;5010489;28;20029;-69
2021/11/05 07:29:19;;;;;;;5.70;5.20;;;;;;;9.92;54.19;95635.50;5010302;28;20022;-71
2021/11/05 07:31:44;;;;;;;7.00;6.40;;;;;;;10.31;52.42;95624.63;5010785;28;20646;-71
2021/11/05 07:34:10;;;;;;;6.20;5.68;;;;;;;10.47;51.62;95636.59;5007462;28;20038;-70
2021/11/05 07:36:35;;;;;;;5.57;5.07;;;;;;;10.60;51.49;95656.34;5001252;28;20013;-70
2021/11/05 07:39:01;;;;;;;7.25;6.63;;;;;;;10.81;51.30;95651.47;5010298;28;20025;-71
2021/11/05 07:41:27;;;;;;;6.68;5.97;;;;;;;10.90;50.59;95655.84;5010217;28;20030;-71
2021/11/05 07:43:53;;;;;;;5.93;5.38;;;;;;;10.84;50.34;95656.19;5010590;28;20021;-71
2021/11/05 07:46:19;;;;;;;5.68;5.18;;;;;;;10.94;50.17;95662.13;5010805;28;20032;-71
2021/11/05 07:48:46;;;;;;;5.38;4.97;;;;;;;11.12;49.83;95676.47;5009617;28;20034;-71
2021/11/05 07:51:11;;;;;;;5.28;4.88;;;;;;;11.23;49.51;95671.75;4998089;28;20608;-72
2021/11/05 07:53:36;;;;;;;6.82;5.65;;;;;;;11.34;49.38;95678.47;5002761;28;20109;-70
2021/11/05 07:56:03;;;;;;;5.10;4.70;;;;;;;10.63;50.31;95679.69;5025346;28;20021;-74
2021/11/05 07:58:28;;;;;;;5.90;4.68;;;;;;;10.50;51.02;95688.44;5025922;28;20024;-74
2021/11/05 08:00:53;;;;;;;9.13;4.30;;;;;;;10.86;49.65;95681.44;5011153;28;20026;-77
2021/11/05 08:03:19;;;;;;;4.60;4.20;;;;;;;11.26;49.55;95694.31;5028778;28;20021;-78
2021/11/05 08:05:44;;;;;;;4.07;3.72;;;;;;;11.62;49.21;95694.47;5007619;28;20018;-76
2021/11/05 08:08:11;;;;;;;4.55;4.18;;;;;;;11.75;47.89;95696.31;5008344;28;20040;-78
2021/11/05 08:10:36;;;;;;;6.80;3.78;;;;;;;11.40;48.25;95711.91;4992346;28;20022;-80
2021/11/05 08:13:02;;;;;;;4.30;3.90;;;;;;;11.89;47.94;95710.47;4992663;28;20077;-80
2021/11/05 08:15:27;;;;;;;3.92;3.53;;;;;;;12.29;47.65;95710.69;4992671;28;20026;-78
2021/11/05 08:17:53;;;;;;;3.63;3.33;;;;;;;12.07;46.84;95723.97;5007561;28;20176;-77
2021/11/05 08:20:19;;;;;;;3.72;3.42;;;;;;;11.19;48.31;95727.47;5002608;28;20026;-80
2021/11/05 08:22:45;;;;;;;5.68;4.10;;;;;;;10.64;50.42;95711.31;5005584;28;20072;-79
2021/11/05 08:25:12;;;;;;;4.38;3.78;;;;;;;10.07;51.40;95734.44;5027095;28;20596;-79
2021/11/05 08:27:38;;;;;;;4.50;4.10;;;;;;;10.77;50.79;95739.06;5026384;28;20092;-79
2021/11/05 08:30:06;;;;;;;5.50;4.25;;;;;;;11.45;48.35;95735.78;5011708;28;20490;-80
2021/11/05 08:32:31;;;;;;;4.25;3.85;;;;;;;11.15;48.67;95749.63;5012280;28;20148;-79
2021/11/05 08:34:57;;;;;;;6.47;4.18;;;;;;;11.71;48.33;95753.97;5006250;28;20515;-78
2021/11/05 08:37:22;;;;;;;6.10;4.38;;;;;;;11.75;47.91;95759.50;4996553;28;20380;-78
2021/11/05 08:39:47;;;;;;;4.45;4.03;;;;;;;11.13;49.32;95757.91;5005633;28;20506;-79
2021/11/05 08:42:13;;;;;;;4.45;4.05;;;;;;;10.55;51.29;95760.97;5011661;28;20646;-79
2021/11/05 08:44:39;;;;;;;5.05;4.05;;;;;;;11.31;49.52;95768.78;5026821;28;20076;-79
2021/11/05 08:47:04;;;;;;;4.90;3.70;;;;;;;11.48;48.84;95770.94;5026575;28;20102;-79
2021/11/05 08:49:29;;;;;;;4.80;3.55;;;;;;;12.37;46.91;95776.66;5022851;28;20117;-79
2021/11/05 08:51:55;;;;;;;3.75;3.45;;;;;;;12.40;47.02;95780.63;4999242;28;20093;-79
2021/11/05 08:54:25;;;;;;;3.60;3.30;;;;;;;11.87;47.19;95789.91;4996115;28;20114;-77
2021/11/05 08:56:51;;;;;;;3.97;3.50;;;;;;;11.50;49.06;95787.41;4995646;28;20383;-80
2021/11/05 08:59:18;;;;;;;6.25;3.08;;;;;;;11.05;50.47;95800.38;4996078;28;20584;-81
2021/11/05 09:01:44;;;;;;;3.85;3.35;;;;;;;11.00;50.27;95792.47;4996672;28;20034;-82
2021/11/05 09:04:13;;;;;;;3.92;3.63;;;;;;;12.06;48.48;95805.03;5001219;28;20023;-80
2021/11/05 09:06:40;;;;;;;4.05;3.75;;;;;;;9.95;53.26;95797.06;5013612;28;20026;-80
2021/11/05 09:09:06;;;;;;;3.50;3.20;;;;;;;9.67;54.20;95810.09;5015534;28;20030;-80
2021/11/05 09:11:32;;;;;;;4.35;3.67;;;;;;;9.48;54.99;95809.22;5016115;28;20045;-82
2021/11/05 09:13:57;;;;;;;4.35;3.85;;;;;;;9.64;54.89;95798.19;5015815;28;20034;-81
2021/11/05 09:16:28;;;;;;;4.20;3.90;;;;;;;10.45;52.74;95814.28;5015584;28;20104;-80
2021/11/05 09:18:55;;;;;;;4.22;3.92;;;;;;;10.43;51.91;95815.63;5013371;28;20026;-79
2021/11/05 09:21:54;;;;;;;8.45;4.88;;;;;;;11.64;49.30;95822.84;4995996;28;20080;-81
2021/11/05 09:24:21;;;;;;;4.38;4.07;;;;;;;11.11;50.49;95831.19;4995773;28;20101;-81
2021/11/05 09:26:46;;;;;;;4.70;4.13;;;;;;;11.28;50.23;95836.78;4996301;28;20113;-81
2021/11/05 09:29:13;;;;;;;5.60;4.10;;;;;;;10.75;51.56;95842.34;4995672;28;20547;-79
2021/11/05 09:31:48;;;;;;;4.93;4.53;;;;;;;10.35;52.64;95841.00;4996280;28;20073;-82
2021/11/05 09:34:14;;;;;;;4.80;3.90;;;;;;;11.70;50.00;95835.00;5000524;28;20476;-81
2021/11/05 09:36:39;;;;;;;4.10;3.80;;;;;;;11.84;48.85;95841.19;5015237;28;20037;-81
2021/11/05 09:39:05;;;;;;;4.43;4.03;;;;;;;11.33;49.90;95849.22;5015213;28;20029;-82
2021/11/05 09:41:30;;;;;;;3.92;3.58;;;;;;;11.61;48.72;95850.06;5015701;28;20802;-82
2021/11/05 09:43:56;;;;;;;5.78;4.00;;;;;;;11.39;50.18;95851.50;5015133;28;20026;-80
2021/11/05 09:46:21;;;;;;;4.10;3.75;;;;;;;11.41;50.13;95846.69;5015262;28;20084;-81
2021/11/05 09:48:49;;;;;;;4.65;3.53;;;;;;;11.89;48.46;95840.31;5011421;28;20050;-78
2021/11/05 09:51:14;;;;;;;4.15;3.78;;;;;;;11.79;49.51;95849.25;5005063;28;20022;-80
2021/11/05 09:53:41;;;;;;;3.50;3.30;;;;;;;12.62;47.65;95858.06;4994126;28;20072;-77
2021/11/05 09:56:08;;;;;;;4.10;3.80;;;;;;;11.79;48.82;95851.91;4994077;28;20468;-75
2021/11/05 09:58:37;;;;;;;4.30;4.00;;;;;;;12.94;47.45;95858.97;4994014;28;20045;-77
2021/11/05 10:01:03;;;;;;;4.28;3.47;;;;;;;12.73;46.28;95853.28;4993042;28;20791;-71
2021/11/05 10:03:28;;;;;;;3.63;3.33;;;;;;;10.96;51.56;95866.03;4992295;28;20102;-78
2021/11/05 10:05:54;;;;;;;3.47;3.22;;;;;;;11.24;50.14;95859.72;5005530;28;20406;-74
2021/11/05 10:08:31;;;;;;;3.40;3.20;;;;;;;11.90;48.82;95858.66;5017928;28;20032;-75
2021/11/05 10:10:59;;;;;;;3.53;3.20;;;;;;;11.35;49.35;95845.16;5012297;28;20026;-74
2021/11/05 10:13:25;;;;;;;3.75;3.42;;;;;;;11.11;50.97;95855.16;5027337;28;20021;-75
2021/11/05 10:15:54;;;;;;;3.08;2.78;;;;;;;11.34;48.96;95861.44;5027582;28;20129;-75
2021/11/05 10:18:24;;;;;;;2.70;2.50;;;;;;;11.27;48.88;95856.50;5012404;28;20111;-74
2021/11/05 10:21:13;;;;;;;3.40;3.10;;;;;;;12.00;47.99;95862.22;5023407;28;20017;-77
2021/11/05 10:23:39;;;;;;;3.10;2.90;;;;;;;10.69;51.76;95862.09;5002862;28;20498;-77
2021/11/05 10:26:22;;;;;;;3.47;3.17;;;;;;;11.33;50.15;95857.22;5024481;28;20109;-73
2021/11/05 10:28:47;;;;;;;2.85;2.65;;;;;;;11.50;50.14;95854.00;5012036;28;20022;-73
2021/11/05 10:31:14;;;;;;;2.83;2.63;;;;;;;11.62;48.41;95857.78;5012925;28;20096;-81
2021/11/05 10:33:41;;;;;;;2.92;2.72;;;;;;;12.16;47.98;95866.19;5011935;28;20069;-72
2021/11/05 10:36:09;;;;;;;2.58;2.38;;;;;;;12.49;47.42;95864.22;5019575;28;20388;-73
2021/11/05 10:38:44;;;;;;;2.40;2.22;;;;;;;11.09;49.44;95857.28;5010282;28;20035;-76
2021/11/05 10:41:15;;;;;;;4.55;2.70;;;;;;;12.09;47.88;95863.13;5011181;28;20128;-76
2021/11/05 10:43:56;;;;;;;2.78;2.45;;;;;;;11.75;47.69;95860.78;5012143;28;20029;-77
2021/11/05 10:46:39;;;;;;;2.20;2.10;;;;;;;12.39;46.98;95859.09;5011424;28;20026;-70
2021/11/05 10:49:19;;;;;;;2.28;2.08;;;;;;;13.05;45.75;95859.53;5015829;28;20040;-75
2021/11/05 10:51:45;;;;;;;3.25;2.60;;;;;;;13.33;44.77;95846.91;5003245;28;20087;-77
2021/11/05 10:54:10;;;;;;;3.28;2.65;;;;;;;12.54;46.09;95853.44;5010447;28;20029;-81
2021/11/05 10:56:38;;;;;;;2.63;2.42;;;;;;;13.35;45.56;95848.19;5013972;28;20786;-83
2021/11/05 10:59:08;;;;;;;2.60;2.50;;;;;;;13.30;44.41;95864.34;5013264;28;20387;-81
2021/11/05 11:01:44;;;;;;;3.03;2.80;;;;;;;12.39;46.67;95865.22;5011808;28;20501;-76
2021/11/05 11:04:12;;;;;;;3.10;2.80;;;;;;;13.36;44.83;95865.00;5013177;28;20030;-76
2021/11/05 11:06:43;;;;;;;2.50;2.30;;;;;;;11.25;49.06;95861.31;4997521;28;20049;-76
2021/11/05 11:09:13;;;;;;;2.63;2.42;;;;;;;12.87;45.99;95870.09;5008066;28;20092;-75
2021/11/05 11:11:54;;;;;;;2.65;2.45;;;;;;;12.54;46.87;95871.31;5006902;28;20030;-74
2021/11/05 11:14:21;;;;;;;2.67;2.33;;;;;;;11.32;48.69;95869.72;4991396;28;20494;-73
2021/11/05 11:16:49;;;;;;;2.97;2.40;;;;;;;11.35;49.19;95868.34;4990685;28;20508;-75
2021/11/05 11:19:19;;;;;;;2.65;2.45;;;;;;;11.38;49.93;95879.22;4998400;28;20068;-78
2021/11/05 11:21:44;;;;;;;2.70;2.50;;;;;;;11.16;49.30;95876.38;5012450;28;20030;-81
2021/11/05 11:24:15;;;;;;;2.45;2.25;;;;;;;11.69;49.21;95868.06;5003054;28;20037;-81
2021/11/05 11:26:43;;;;;;;2.25;2.15;;;;;;;11.89;47.56;95878.41;4993116;28;20034;-80
2021/11/05 11:29:24;;;;;;;2.33;2.15;;;;;;;11.62;48.01;95865.78;4992387;28;20041;-79
2021/11/05 11:31:51;;;;;;;2.00;1.90;;;;;;;12.51;46.40;95871.94;5007860;28;20030;-78
2021/11/05 11:34:17;;;;;;;1.95;1.77;;;;;;;11.42;48.98;95866.13;4997741;28;20437;-79
2021/11/05 11:36:46;;;;;;;2.05;1.75;;;;;;;12.04;47.50;95871.22;5006778;28;20031;-79